アンカレッジ/テッド・スティーブンス の空港の天気 - METARとTAF

テッド・スティーブンス・アンカレッジ国際空港 ( PANC / ANC ) - アメリカ アラスカ州アンカレッジ
飛行場実況気象(Metar)
観測時間01/19 02:26 AKST (01/19 11:26 UTC)
風向・風速南東 2m/s
視程400m
天気現象氷霧
全天を覆う雲 鉛直視程 30m
気温-12.2℃
湿度87%
気圧1001hPa
METARPANC 191126Z 14003KT 1/4SM R07R/1200V1800FT FZFG VV001 M12/M14 A2957 RMK AO2 I1000 T11221139 $
過去の天気等 Google飛行場航空写真 Wunderground天気予報

過去48時間のMETAR

飛行場予報(TAF)
発表時間: 1/18 20:41 AKST (1/19 05:41 UTC)
予報対象時間: 18日21時 AKST ~ 20日3時 AKST
風向・風速不定 2m/s
視程400m
天気現象氷霧
全天を覆う雲 鉛直視程 60m
19日12時 AKST から
風向・風速不定 2m/s
視程1610m
天気現象もや
全天の8割程度の雲 雲底高度 120m
19日16時 AKST から
風向・風速北北東 3m/s
視程10km以上
天気現象周辺で霧
少しの雲 雲底高度 120m
PANC 190541Z 1906/2012 VRB03KT 1/4SM FZFG VV002
FM192100 VRB04KT 1SM BR BKN004
FM200100 03005KT P6SM VCFG FEW004